createdAt,value
2022-10-01T00:03:20.090Z,9.00
2022-10-01T00:06:43.410Z,7.53
2022-10-01T00:10:06.893Z,6.93
2022-10-01T00:13:31.248Z,7.78
2022-10-01T00:16:54.356Z,9.20
2022-10-01T00:20:17.548Z,8.23
2022-10-01T00:23:41.028Z,8.82
2022-10-01T00:27:03.991Z,7.50
2022-10-01T00:30:28.381Z,7.35
2022-10-01T00:33:53.555Z,8.02
2022-10-01T00:37:17.654Z,7.93
2022-10-01T00:40:40.546Z,6.18
2022-10-01T00:44:24.542Z,7.43
2022-10-01T00:47:52.272Z,7.30
2022-10-01T00:51:15.744Z,8.00
2022-10-01T00:54:42.991Z,7.45
2022-10-01T00:58:07.736Z,6.55
2022-10-01T01:01:31.343Z,6.70
2022-10-01T01:04:55.794Z,7.40
2022-10-01T01:08:19.248Z,6.95
2022-10-01T01:11:51.389Z,7.60
2022-10-01T01:15:20.127Z,6.57
2022-10-01T01:18:50.448Z,6.88
2022-10-01T01:22:17.449Z,6.70
2022-10-01T01:25:47.248Z,6.55
2022-10-01T01:29:20.999Z,6.15
2022-10-01T01:32:51.090Z,6.82
2022-10-01T01:36:18.108Z,6.82
2022-10-01T01:39:45.046Z,5.95
2022-10-01T01:43:13.960Z,6.93
2022-10-01T01:46:41.430Z,7.15
2022-10-01T01:50:07.523Z,7.05
2022-10-01T01:53:32.114Z,6.07
2022-10-01T01:56:58.090Z,6.43
2022-10-01T02:00:22.399Z,5.80
2022-10-01T02:03:46.681Z,6.80
2022-10-01T02:07:36.954Z,5.22
2022-10-01T02:11:13.453Z,7.82
2022-10-01T02:14:45.064Z,6.90
2022-10-01T02:18:13.681Z,7.25
2022-10-01T02:21:41.912Z,7.00
2022-10-01T02:25:07.566Z,5.00
2022-10-01T02:28:33.776Z,6.63
2022-10-01T02:31:58.249Z,6.35
2022-10-01T02:35:21.917Z,7.00
2022-10-01T02:38:47.314Z,5.68
2022-10-01T02:42:13.380Z,5.57
2022-10-01T02:45:40.276Z,5.93
2022-10-01T02:49:04.377Z,6.80
2022-10-01T02:52:33.688Z,5.60
2022-10-01T02:56:00.663Z,5.78
2022-10-01T02:59:22.714Z,5.95
2022-10-01T03:02:45.667Z,6.22
2022-10-01T03:06:08.556Z,4.93
2022-10-01T03:09:32.172Z,5.45
2022-10-01T03:12:56.450Z,5.60
2022-10-01T03:16:19.354Z,5.80
2022-10-01T03:19:42.460Z,6.80
2022-10-01T03:23:05.336Z,6.22
2022-10-01T03:26:28.213Z,5.45
2022-10-01T03:29:52.630Z,5.20
2022-10-01T03:33:15.533Z,5.43
2022-10-01T03:36:38.453Z,6.05
2022-10-01T03:40:01.436Z,5.68
2022-10-01T03:43:24.494Z,5.80
2022-10-01T03:46:48.769Z,5.53
2022-10-01T03:50:12.086Z,5.28
2022-10-01T03:53:35.016Z,5.95
2022-10-01T03:56:58.479Z,5.40
2022-10-01T04:00:21.578Z,6.28
2022-10-01T04:03:46.299Z,5.65
2022-10-01T04:07:09.170Z,6.45
2022-10-01T04:10:32.307Z,5.43
2022-10-01T04:13:55.272Z,5.60
2022-10-01T04:17:18.217Z,5.82
2022-10-01T04:20:43.097Z,6.07
2022-10-01T04:24:07.458Z,5.15
2022-10-01T04:27:30.360Z,5.72
2022-10-01T04:31:14.180Z,5.72
2022-10-01T04:34:55.346Z,4.97
2022-10-01T04:38:19.544Z,5.25
2022-10-01T04:41:42.447Z,4.85
2022-10-01T04:45:06.181Z,6.10
2022-10-01T04:48:29.122Z,4.95
2022-10-01T04:51:52.015Z,5.00
2022-10-01T04:55:17.540Z,4.95
2022-10-01T04:58:41.258Z,4.90
2022-10-01T05:02:04.320Z,5.38
2022-10-01T05:05:29.072Z,5.65
2022-10-01T05:08:53.049Z,4.95
2022-10-01T05:12:21.151Z,5.38
2022-10-01T05:15:49.139Z,5.32
2022-10-01T05:19:12.406Z,4.63
2022-10-01T05:22:35.568Z,5.53
2022-10-01T05:25:58.427Z,5.32
2022-10-01T05:29:23.029Z,5.53
2022-10-01T05:32:56.166Z,5.50
2022-10-01T05:36:19.232Z,4.75
2022-10-01T05:39:42.154Z,5.57
2022-10-01T05:43:05.289Z,5.45
2022-10-01T05:46:29.512Z,5.60
2022-10-01T05:49:52.425Z,5.30
2022-10-01T05:53:16.036Z,5.68
2022-10-01T05:56:39.195Z,5.65
2022-10-01T06:00:02.512Z,4.93
2022-10-01T06:03:36.216Z,5.80
2022-10-01T06:06:59.478Z,4.95
2022-10-01T06:10:23.970Z,5.00
2022-10-01T06:13:46.990Z,5.32
2022-10-01T06:17:09.876Z,4.53
2022-10-01T06:20:34.237Z,4.63
2022-10-01T06:23:57.258Z,5.20
2022-10-01T06:27:20.309Z,4.55
2022-10-01T06:30:43.832Z,5.75
2022-10-01T06:34:06.980Z,5.68
2022-10-01T06:37:31.365Z,4.18
2022-10-01T06:40:55.440Z,4.90
2022-10-01T06:44:20.981Z,4.32
2022-10-01T06:47:43.973Z,4.85
2022-10-01T06:51:08.477Z,5.43
2022-10-01T06:54:32.814Z,4.03
2022-10-01T06:57:56.910Z,4.40
2022-10-01T07:01:20.999Z,4.57
2022-10-01T07:04:44.097Z,4.63
2022-10-01T07:08:07.861Z,4.13
2022-10-01T07:11:32.617Z,4.82
2022-10-01T07:14:55.985Z,4.10
2022-10-01T07:18:19.004Z,4.75
2022-10-01T07:21:41.897Z,5.43
2022-10-01T07:25:05.274Z,4.60
2022-10-01T07:28:29.698Z,4.32
2022-10-01T07:31:57.169Z,3.90
2022-10-01T07:35:21.075Z,5.40
2022-10-01T07:38:45.882Z,4.80
2022-10-01T07:42:08.855Z,4.13
2022-10-01T07:45:34.156Z,4.28
2022-10-01T07:48:58.563Z,4.80
2022-10-01T07:52:22.660Z,4.55
2022-10-01T07:55:47.011Z,4.32
2022-10-01T07:59:11.149Z,4.22
2022-10-01T08:02:50.774Z,4.63
2022-10-01T08:06:25.350Z,5.05
2022-10-01T08:09:49.089Z,5.35
2022-10-01T08:13:15.287Z,4.97
2022-10-01T08:16:39.690Z,5.32
2022-10-01T08:20:04.667Z,5.57
2022-10-01T08:23:27.626Z,5.20
2022-10-01T08:26:54.390Z,4.93
2022-10-01T08:30:17.373Z,6.55
2022-10-01T08:33:41.204Z,5.43
2022-10-01T08:37:05.474Z,5.93
2022-10-01T08:40:29.344Z,8.10
2022-10-01T08:43:54.219Z,8.40
2022-10-01T08:47:26.294Z,7.45
2022-10-01T08:50:56.381Z,6.65
2022-10-01T08:54:30.861Z,7.30
2022-10-01T08:57:59.403Z,7.28
2022-10-01T09:01:22.890Z,7.95
2022-10-01T09:04:46.054Z,7.38
2022-10-01T09:08:20.022Z,7.97
2022-10-01T09:12:00.234Z,7.18
2022-10-01T09:15:30.117Z,9.15
2022-10-01T09:19:06.491Z,8.50
2022-10-01T09:22:38.773Z,6.45
2022-10-01T09:26:02.272Z,8.23
2022-10-01T09:29:33.543Z,9.05
2022-10-01T09:32:59.600Z,7.55
2022-10-01T09:36:33.538Z,8.90
2022-10-01T09:40:14.920Z,8.77
2022-10-01T09:43:39.860Z,7.28
2022-10-01T09:47:04.190Z,8.48
2022-10-01T09:50:36.048Z,8.07
2022-10-01T09:54:04.318Z,8.30
2022-10-01T09:57:33.626Z,6.63
2022-10-01T10:00:56.977Z,8.50
2022-10-01T10:04:23.466Z,6.93
2022-10-01T10:07:47.811Z,7.28
2022-10-01T10:11:12.725Z,7.55
2022-10-01T10:14:37.262Z,7.22
2022-10-01T10:18:07.396Z,7.97
2022-10-01T10:21:34.957Z,8.73
2022-10-01T10:24:58.872Z,9.27
2022-10-01T10:28:23.910Z,6.97
2022-10-01T10:31:48.005Z,7.53
2022-10-01T10:35:16.068Z,8.40
2022-10-01T10:38:40.385Z,10.73
2022-10-01T10:42:04.972Z,9.07
2022-10-01T10:45:33.615Z,8.00
2022-10-01T10:49:04.645Z,8.07
2022-10-01T10:52:29.812Z,7.05
2022-10-01T10:56:00.943Z,7.88
2022-10-01T10:59:23.856Z,8.02
2022-10-01T11:02:53.138Z,7.57
2022-10-01T11:06:18.715Z,7.95
2022-10-01T11:09:52.869Z,8.50
2022-10-01T11:13:34.432Z,8.27
2022-10-01T11:17:27.088Z,8.18
2022-10-01T11:20:56.658Z,7.20
2022-10-01T11:24:35.049Z,7.95
2022-10-01T11:28:09.634Z,7.50
2022-10-01T11:31:40.353Z,7.40
2022-10-01T11:35:42.072Z,8.80
2022-10-01T11:39:06.532Z,6.57
2022-10-01T11:42:35.864Z,6.70
2022-10-01T11:46:04.379Z,7.28
2022-10-01T11:49:51.396Z,6.75
2022-10-01T11:53:19.432Z,7.10
2022-10-01T11:57:04.536Z,6.05
2022-10-01T12:00:27.616Z,6.47
2022-10-01T12:04:01.615Z,7.72
2022-10-01T12:07:31.179Z,6.22
2022-10-01T12:10:58.858Z,6.90
2022-10-01T12:14:25.802Z,6.20
2022-10-01T12:17:55.132Z,7.03
2022-10-01T12:21:24.071Z,5.85
2022-10-01T12:24:49.282Z,5.55
2022-10-01T12:28:15.206Z,6.13
2022-10-01T12:31:44.404Z,6.88
2022-10-01T12:35:18.844Z,6.88
2022-10-01T12:39:00.898Z,6.68
2022-10-01T12:42:40.274Z,6.30
2022-10-01T12:46:10.757Z,5.40
2022-10-01T12:49:39.122Z,6.40
2022-10-01T12:53:18.225Z,4.70
2022-10-01T12:56:46.286Z,5.07
2022-10-01T13:00:16.703Z,5.57
2022-10-01T13:04:12.353Z,5.35
2022-10-01T13:07:50.155Z,5.38
2022-10-01T13:11:25.883Z,5.53
2022-10-01T13:14:51.119Z,4.68
2022-10-01T13:18:28.024Z,5.35
2022-10-01T13:22:08.598Z,4.03
2022-10-01T13:25:37.913Z,4.90
2022-10-01T13:29:22.639Z,4.78
2022-10-01T13:32:52.735Z,5.65
2022-10-01T13:36:19.630Z,5.28
2022-10-01T13:39:43.468Z,5.80
2022-10-01T13:43:15.789Z,4.95
2022-10-01T13:46:53.475Z,4.10
2022-10-01T13:50:22.508Z,5.07
2022-10-01T13:53:54.774Z,4.32
2022-10-01T13:57:29.895Z,5.32
2022-10-01T14:00:54.484Z,5.60
2022-10-01T14:04:24.660Z,4.40
2022-10-01T14:07:50.206Z,4.15
2022-10-01T14:11:35.274Z,4.05
2022-10-01T14:15:18.464Z,4.15
2022-10-01T14:18:44.142Z,4.63
2022-10-01T14:22:21.219Z,4.28
2022-10-01T14:25:53.854Z,5.93
2022-10-01T14:29:33.627Z,4.88
2022-10-01T14:33:17.643Z,5.38
2022-10-01T14:36:44.632Z,4.35
2022-10-01T14:40:17.983Z,4.38
2022-10-01T14:43:41.036Z,4.07
2022-10-01T14:47:18.995Z,4.18
2022-10-01T14:50:45.665Z,6.63
2022-10-01T14:54:14.348Z,4.35
2022-10-01T14:57:40.805Z,5.00
2022-10-01T15:01:04.126Z,4.10
2022-10-01T15:04:28.745Z,3.85
2022-10-01T15:07:51.935Z,4.47
2022-10-01T15:11:18.402Z,4.07
2022-10-01T15:14:43.600Z,4.60
2022-10-01T15:18:07.157Z,5.32
2022-10-01T15:21:37.543Z,4.28
2022-10-01T15:25:02.720Z,4.78
2022-10-01T15:28:31.941Z,4.38
2022-10-01T15:31:58.583Z,4.32
2022-10-01T15:35:23.663Z,4.32
2022-10-01T15:38:50.471Z,4.28
2022-10-01T15:42:25.599Z,3.78
2022-10-01T15:46:28.962Z,3.78
2022-10-01T15:50:21.262Z,3.47
2022-10-01T15:53:44.779Z,3.83
2022-10-01T15:57:10.278Z,3.70
2022-10-01T16:00:42.094Z,3.60
2022-10-01T16:04:08.751Z,3.60
2022-10-01T16:07:35.360Z,3.90
2022-10-01T16:11:31.595Z,4.13
2022-10-01T16:15:00.512Z,4.57
2022-10-01T16:18:23.553Z,3.15
2022-10-01T16:22:16.402Z,4.05
2022-10-01T16:25:45.293Z,3.13
2022-10-01T16:29:24.570Z,4.38
2022-10-01T16:32:49.466Z,4.25
2022-10-01T16:36:19.759Z,4.28
2022-10-01T16:39:42.798Z,2.92
2022-10-01T16:43:07.507Z,4.15
2022-10-01T16:46:30.720Z,4.97
2022-10-01T16:49:55.054Z,3.28
2022-10-01T16:53:19.232Z,3.67
2022-10-01T16:56:42.277Z,3.50
2022-10-01T17:00:05.657Z,3.33
2022-10-01T17:03:28.668Z,3.42
2022-10-01T17:06:53.768Z,3.00
2022-10-01T17:10:18.533Z,4.72
2022-10-01T17:13:42.238Z,4.35
2022-10-01T17:17:05.414Z,4.00
2022-10-01T17:20:30.114Z,4.22
2022-10-01T17:23:54.482Z,4.85
2022-10-01T17:27:17.498Z,4.70
2022-10-01T17:30:41.328Z,5.60
2022-10-01T17:34:05.666Z,4.28
2022-10-01T17:37:28.559Z,3.95
2022-10-01T17:40:56.660Z,5.05
2022-10-01T17:44:19.956Z,6.05
2022-10-01T17:47:46.800Z,6.18
2022-10-01T17:51:13.439Z,5.63
2022-10-01T17:54:37.248Z,5.10
2022-10-01T17:58:01.548Z,6.28
2022-10-01T18:01:24.632Z,6.72
2022-10-01T18:04:47.545Z,5.78
2022-10-01T18:08:10.517Z,6.28
2022-10-01T18:11:34.028Z,6.43
2022-10-01T18:14:58.338Z,5.32
2022-10-01T18:22:13.377Z,5.22
2022-10-01T18:25:36.907Z,6.78
2022-10-01T18:28:59.783Z,6.30
2022-10-01T18:32:25.942Z,4.53
2022-10-01T18:35:57.588Z,4.72
2022-10-01T18:39:26.842Z,4.95
2022-10-01T18:42:55.257Z,5.55
2022-10-01T18:46:26.772Z,5.93
2022-10-01T18:50:08.288Z,5.13
2022-10-01T18:53:48.366Z,6.63
2022-10-01T18:57:25.025Z,5.55
2022-10-01T19:00:58.781Z,6.03
2022-10-01T19:04:47.137Z,5.57
2022-10-01T19:08:24.479Z,5.75
2022-10-01T19:11:57.144Z,5.25
2022-10-01T19:15:29.957Z,5.88
2022-10-01T19:19:15.556Z,5.72
2022-10-01T19:22:52.152Z,5.38
2022-10-01T19:26:24.797Z,5.95
2022-10-01T19:29:59.570Z,5.22
2022-10-01T19:33:23.547Z,5.75
2022-10-01T19:36:53.520Z,5.70
2022-10-01T19:40:22.062Z,6.00
2022-10-01T19:43:53.270Z,6.85
2022-10-01T19:47:25.984Z,5.28
2022-10-01T19:50:54.453Z,6.75
2022-10-01T19:54:20.046Z,5.72
2022-10-01T19:57:44.836Z,7.15
2022-10-01T20:01:16.800Z,7.00
2022-10-01T20:04:47.171Z,7.57
2022-10-01T20:08:26.497Z,7.20
2022-10-01T20:11:54.877Z,8.07
2022-10-01T20:15:29.886Z,6.75
2022-10-01T20:19:00.698Z,7.20
2022-10-01T20:22:31.056Z,5.93
2022-10-01T20:26:04.149Z,7.45
2022-10-01T20:29:38.015Z,6.07
2022-10-01T20:33:10.897Z,7.70
2022-10-01T20:36:42.332Z,7.82
2022-10-01T20:40:17.791Z,7.57
2022-10-01T20:43:49.058Z,5.90
2022-10-01T20:47:20.545Z,8.68
2022-10-01T20:50:45.790Z,5.82
2022-10-01T20:54:15.811Z,7.53
2022-10-01T20:57:42.209Z,6.35
2022-10-01T21:01:10.404Z,6.07
2022-10-01T21:04:38.184Z,6.72
2022-10-01T21:08:04.334Z,6.63
2022-10-01T21:11:34.409Z,7.93
2022-10-01T21:14:58.203Z,5.43
2022-10-01T21:18:33.837Z,5.47
2022-10-01T21:22:04.696Z,6.78
2022-10-01T21:25:35.246Z,6.25
2022-10-01T21:29:19.235Z,5.68
2022-10-01T21:33:11.457Z,6.75
2022-10-01T21:36:39.640Z,5.93
2022-10-01T21:40:11.311Z,6.10
2022-10-01T21:43:46.532Z,6.20
2022-10-01T21:47:19.497Z,5.70
2022-10-01T21:50:51.468Z,5.88
2022-10-01T21:54:34.812Z,7.05
2022-10-01T21:58:24.180Z,6.30
2022-10-01T22:02:01.518Z,5.53
2022-10-01T22:05:35.801Z,6.15
2022-10-01T22:09:08.211Z,4.72
2022-10-01T22:12:36.125Z,6.10
2022-10-01T22:16:02.475Z,5.35
2022-10-01T22:19:30.164Z,5.93
2022-10-01T22:22:58.310Z,4.70
2022-10-01T22:26:26.023Z,5.05
2022-10-01T22:29:53.802Z,5.75
2022-10-01T22:33:20.955Z,5.28
2022-10-01T22:36:49.930Z,4.85
2022-10-01T22:40:18.972Z,5.10
2022-10-01T22:43:43.003Z,5.38
2022-10-01T22:47:26.718Z,4.88
2022-10-01T22:51:02.817Z,5.07
2022-10-01T22:54:35.894Z,5.25
2022-10-01T22:58:14.359Z,5.07
2022-10-01T23:01:46.222Z,4.18
2022-10-01T23:05:21.928Z,4.00
2022-10-01T23:08:51.347Z,4.53
2022-10-01T23:12:22.890Z,3.92
2022-10-01T23:15:53.806Z,3.90
2022-10-01T23:19:33.876Z,4.38
2022-10-01T23:23:12.388Z,4.30
2022-10-01T23:26:44.867Z,3.35
2022-10-01T23:30:14.205Z,3.88
2022-10-01T23:33:54.949Z,3.95
2022-10-01T23:37:38.569Z,5.78
2022-10-01T23:41:09.871Z,3.70
2022-10-01T23:44:39.050Z,4.50
2022-10-01T23:48:09.499Z,4.18
2022-10-01T23:51:39.019Z,5.03
2022-10-01T23:55:19.127Z,3.45
2022-10-01T23:58:47.943Z,4.32
